ZKROG NZWN-NZNP
Flight info
| Callsign | ZKROG |
|---|---|
| Flight time | 1h 8m |
| Altitude | 8000 |
| Route | ATVEV1Q ATVIN Y631 MEVAX H499 SELTA VISAD4A |
| Aircraft | C182/L-SDGRY/S |
Departure
| Time | 2026-04-21 04:42 |
|---|---|
| Airport | Wellington International Airport (NZWN) |
Arrival
| Time | 2026-04-21 05:50 |
|---|---|
| Airport | New Plymouth Airport (NZNP) |
| Time | Latitude | Longitude | Altitude | Speed | Heading |
|---|---|---|---|---|---|
| 2026-04-21 04:32 | -41.32470 | 174.80399 | 24 ft | 0 kts | 93° |
| 2026-04-21 04:37 | -41.32470 | 174.80400 | 24 ft | 1 kts | 92° |
| 2026-04-21 04:37 | -41.32470 | 174.80403 | 24 ft | 0 kts | 104° |
| 2026-04-21 04:37 | -41.32481 | 174.80437 | 24 ft | 13 kts | 120° |
| 2026-04-21 04:38 | -41.32513 | 174.80538 | 24 ft | 11 kts | 92° |
| 2026-04-21 04:38 | -41.32516 | 174.80606 | 26 ft | 0 kts | 94° |
| 2026-04-21 04:40 | -41.32516 | 174.80611 | 26 ft | 5 kts | 91° |
| 2026-04-21 04:40 | -41.32527 | 174.80705 | 26 ft | 4 kts | 175° |
| 2026-04-21 04:40 | -41.32528 | 174.80705 | 26 ft | 0 kts | 186° |
| 2026-04-21 04:41 | -41.32529 | 174.80705 | 26 ft | 2 kts | 187° |
| 2026-04-21 04:41 | -41.32733 | 174.80687 | 38 ft | 52 kts | 181° |
| 2026-04-21 04:41 | -41.33129 | 174.80659 | 267 ft | 60 kts | 181° |
| 2026-04-21 04:42 | -41.33593 | 174.80632 | 445 ft | 72 kts | 183° |
| 2026-04-21 04:42 | -41.34119 | 174.80595 | 655 ft | 78 kts | 182° |
| 2026-04-21 04:42 | -41.34663 | 174.80558 | 896 ft | 79 kts | 180° |
| 2026-04-21 04:42 | -41.35211 | 174.80521 | 1150 ft | 78 kts | 179° |
| 2026-04-21 04:43 | -41.35735 | 174.80485 | 1397 ft | 73 kts | 176° |
| 2026-04-21 04:43 | -41.36224 | 174.80451 | 1622 ft | 68 kts | 175° |
| 2026-04-21 04:43 | -41.36703 | 174.80418 | 1825 ft | 69 kts | 175° |
| 2026-04-21 04:43 | -41.37174 | 174.80211 | 2025 ft | 73 kts | 188° |
| 2026-04-21 04:44 | -41.37629 | 174.79969 | 2224 ft | 68 kts | 183° |
| 2026-04-21 04:44 | -41.38067 | 174.79742 | 2431 ft | 67 kts | 184° |
| 2026-04-21 04:44 | -41.38495 | 174.79512 | 2631 ft | 66 kts | 184° |
| 2026-04-21 04:44 | -41.38911 | 174.79315 | 2830 ft | 67 kts | 188° |
| 2026-04-21 04:45 | -41.39263 | 174.78818 | 3026 ft | 84 kts | 212° |
| 2026-04-21 04:45 | -41.39353 | 174.77904 | 3206 ft | 123 kts | 257° |
| 2026-04-21 04:45 | -41.38799 | 174.76878 | 3367 ft | 151 kts | 319° |
| 2026-04-21 04:45 | -41.37798 | 174.76559 | 3528 ft | 144 kts | 21° |
| 2026-04-21 04:46 | -41.36824 | 174.76721 | 3723 ft | 147 kts | 7° |
| 2026-04-21 04:46 | -41.35810 | 174.76580 | 3939 ft | 146 kts | 2° |
| 2026-04-21 04:46 | -41.34797 | 174.76430 | 4150 ft | 146 kts | 2° |
| 2026-04-21 04:46 | -41.33780 | 174.76283 | 4353 ft | 147 kts | 2° |
| 2026-04-21 04:47 | -41.32760 | 174.76138 | 4558 ft | 148 kts | 4° |
| 2026-04-21 04:47 | -41.31756 | 174.75990 | 4772 ft | 144 kts | 4° |
| 2026-04-21 04:47 | -41.30744 | 174.75847 | 4985 ft | 148 kts | 4° |
| 2026-04-21 04:47 | -41.29724 | 174.75695 | 5179 ft | 144 kts | 3° |
| 2026-04-21 04:48 | -41.28725 | 174.75553 | 5382 ft | 145 kts | 5° |
| 2026-04-21 04:48 | -41.27708 | 174.75408 | 5541 ft | 148 kts | 5° |
| 2026-04-21 04:48 | -41.26687 | 174.75259 | 5695 ft | 147 kts | 6° |
| 2026-04-21 04:48 | -41.25628 | 174.75112 | 5817 ft | 159 kts | 4° |
| 2026-04-21 04:49 | -41.24506 | 174.74951 | 5904 ft | 163 kts | 4° |
| 2026-04-21 04:49 | -41.23474 | 174.74782 | 5980 ft | 139 kts | 6° |
| 2026-04-21 04:49 | -41.22518 | 174.74649 | 6049 ft | 138 kts | 8° |
| 2026-04-21 04:49 | -41.21531 | 174.74518 | 6168 ft | 148 kts | 6° |
| 2026-04-21 04:50 | -41.20496 | 174.74369 | 6279 ft | 152 kts | 5° |
| 2026-04-21 04:50 | -41.19432 | 174.74214 | 6379 ft | 153 kts | 7° |
| 2026-04-21 04:50 | -41.18389 | 174.74057 | 6485 ft | 147 kts | 6° |
| 2026-04-21 04:50 | -41.17395 | 174.73909 | 6562 ft | 141 kts | 6° |
| 2026-04-21 04:51 | -41.16420 | 174.73774 | 6659 ft | 142 kts | 7° |
| 2026-04-21 04:51 | -41.15421 | 174.73634 | 6762 ft | 146 kts | 6° |
| 2026-04-21 04:51 | -41.14403 | 174.73487 | 6866 ft | 148 kts | 6° |
| 2026-04-21 04:51 | -41.13378 | 174.73338 | 6974 ft | 148 kts | 6° |
| 2026-04-21 04:52 | -41.12366 | 174.73192 | 7063 ft | 148 kts | 5° |
| 2026-04-21 04:52 | -41.11342 | 174.73044 | 7169 ft | 148 kts | 6° |
| 2026-04-21 04:52 | -41.10320 | 174.72897 | 7272 ft | 147 kts | 6° |
| 2026-04-21 04:52 | -41.09303 | 174.72751 | 7370 ft | 147 kts | 6° |
| 2026-04-21 04:53 | -41.08290 | 174.72604 | 7468 ft | 146 kts | 6° |
| 2026-04-21 04:53 | -41.07282 | 174.72459 | 7572 ft | 145 kts | 6° |
| 2026-04-21 04:53 | -41.06278 | 174.72315 | 7673 ft | 145 kts | 6° |
| 2026-04-21 04:53 | -41.05280 | 174.72171 | 7771 ft | 144 kts | 6° |
| 2026-04-21 04:54 | -41.04286 | 174.72029 | 7870 ft | 143 kts | 6° |
| 2026-04-21 04:54 | -41.03299 | 174.71887 | 7974 ft | 142 kts | 6° |
| 2026-04-21 04:54 | -41.02294 | 174.71746 | 7987 ft | 148 kts | 6° |
| 2026-04-21 04:54 | -41.01249 | 174.71598 | 7993 ft | 153 kts | 5° |
| 2026-04-21 04:55 | -41.00187 | 174.71444 | 7996 ft | 155 kts | 5° |
| 2026-04-21 04:55 | -40.99104 | 174.71288 | 7996 ft | 157 kts | 4° |
| 2026-04-21 04:55 | -40.98018 | 174.71131 | 7996 ft | 157 kts | 4° |
| 2026-04-21 04:55 | -40.96932 | 174.70975 | 7989 ft | 157 kts | 5° |
| 2026-04-21 04:56 | -40.95845 | 174.70819 | 7989 ft | 157 kts | 4° |
| 2026-04-21 04:56 | -40.94755 | 174.70663 | 7989 ft | 158 kts | 4° |
| 2026-04-21 04:56 | -40.93679 | 174.70508 | 7990 ft | 157 kts | 5° |
| 2026-04-21 04:56 | -40.92591 | 174.70353 | 7987 ft | 157 kts | 5° |
| 2026-04-21 04:57 | -40.91502 | 174.70197 | 7985 ft | 157 kts | 4° |
| 2026-04-21 04:57 | -40.90412 | 174.70041 | 7984 ft | 157 kts | 5° |
| 2026-04-21 04:57 | -40.89327 | 174.69885 | 7985 ft | 157 kts | 4° |
| 2026-04-21 04:57 | -40.88241 | 174.69730 | 7985 ft | 157 kts | 5° |
| 2026-04-21 04:58 | -40.87154 | 174.69575 | 7985 ft | 157 kts | 5° |
| 2026-04-21 04:58 | -40.86070 | 174.69419 | 7981 ft | 157 kts | 5° |
| 2026-04-21 04:58 | -40.84987 | 174.69264 | 7981 ft | 156 kts | 5° |
| 2026-04-21 04:58 | -40.83905 | 174.69110 | 7979 ft | 156 kts | 4° |
| 2026-04-21 04:59 | -40.82830 | 174.68956 | 7978 ft | 155 kts | 5° |
| 2026-04-21 04:59 | -40.81756 | 174.68804 | 7977 ft | 155 kts | 6° |
| 2026-04-21 04:59 | -40.80687 | 174.68651 | 7975 ft | 155 kts | 5° |
| 2026-04-21 04:59 | -40.79617 | 174.68498 | 7976 ft | 155 kts | 6° |
| 2026-04-21 05:00 | -40.78545 | 174.68347 | 7978 ft | 155 kts | 5° |
| 2026-04-21 05:00 | -40.77836 | 174.68244 | 7972 ft | 155 kts | 6° |
| 2026-04-21 05:00 | -40.75706 | 174.67941 | 7973 ft | 154 kts | 6° |
| 2026-04-21 05:01 | -40.74288 | 174.67739 | 7970 ft | 155 kts | 6° |
| 2026-04-21 05:01 | -40.73218 | 174.67587 | 7973 ft | 155 kts | 5° |
| 2026-04-21 05:01 | -40.72493 | 174.67451 | 7971 ft | 157 kts | 0° |
| 2026-04-21 05:01 | -40.71424 | 174.67248 | 7971 ft | 154 kts | 6° |
| 2026-04-21 05:02 | -40.70355 | 174.67086 | 7971 ft | 155 kts | 6° |
| 2026-04-21 05:02 | -40.69290 | 174.66906 | 7969 ft | 154 kts | 4° |
| 2026-04-21 05:02 | -40.68222 | 174.66720 | 7963 ft | 155 kts | 3° |
| 2026-04-21 05:02 | -40.67170 | 174.66533 | 7963 ft | 154 kts | 4° |
| 2026-04-21 05:03 | -40.66106 | 174.66346 | 7966 ft | 154 kts | 5° |
| 2026-04-21 05:03 | -40.65046 | 174.66160 | 7966 ft | 154 kts | 4° |
| 2026-04-21 05:03 | -40.63984 | 174.65973 | 7967 ft | 154 kts | 4° |
| 2026-04-21 05:03 | -40.62922 | 174.65786 | 7966 ft | 153 kts | 5° |
| 2026-04-21 05:04 | -40.61862 | 174.65600 | 7965 ft | 154 kts | 5° |
| 2026-04-21 05:04 | -40.60800 | 174.65413 | 7966 ft | 154 kts | 4° |
| 2026-04-21 05:04 | -40.59740 | 174.65226 | 7963 ft | 153 kts | 3° |
| 2026-04-21 05:04 | -40.58684 | 174.65040 | 7965 ft | 153 kts | 4° |
| 2026-04-21 05:05 | -40.57629 | 174.64855 | 7965 ft | 153 kts | 5° |
| 2026-04-21 05:05 | -40.56575 | 174.64670 | 7959 ft | 153 kts | 5° |
| 2026-04-21 05:05 | -40.55529 | 174.64486 | 7958 ft | 153 kts | 5° |
| 2026-04-21 05:05 | -40.54479 | 174.64301 | 7958 ft | 152 kts | 4° |
| 2026-04-21 05:06 | -40.53433 | 174.64118 | 7960 ft | 152 kts | 5° |
| 2026-04-21 05:06 | -40.52383 | 174.63934 | 7954 ft | 152 kts | 5° |
| 2026-04-21 05:06 | -40.51338 | 174.63752 | 7955 ft | 152 kts | 4° |
| 2026-04-21 05:06 | -40.50291 | 174.63568 | 7956 ft | 152 kts | 6° |
| 2026-04-21 05:07 | -40.49240 | 174.63381 | 7960 ft | 152 kts | 4° |
| 2026-04-21 05:07 | -40.48192 | 174.63196 | 7954 ft | 152 kts | 4° |
| 2026-04-21 05:07 | -40.47147 | 174.63014 | 7958 ft | 151 kts | 5° |
| 2026-04-21 05:07 | -40.46103 | 174.62832 | 7957 ft | 152 kts | 2° |
| 2026-04-21 05:08 | -40.45055 | 174.62651 | 7959 ft | 152 kts | 6° |
| 2026-04-21 05:08 | -40.44005 | 174.62468 | 7954 ft | 152 kts | 3° |
| 2026-04-21 05:08 | -40.42953 | 174.62284 | 7953 ft | 152 kts | 2° |
| 2026-04-21 05:08 | -40.41905 | 174.62099 | 7954 ft | 152 kts | 3° |
| 2026-04-21 05:09 | -40.40858 | 174.61916 | 7952 ft | 152 kts | 5° |
| 2026-04-21 05:09 | -40.39815 | 174.61734 | 7954 ft | 151 kts | 2° |
| 2026-04-21 05:09 | -40.38773 | 174.61552 | 7953 ft | 151 kts | 5° |
| 2026-04-21 05:09 | -40.37732 | 174.61371 | 7953 ft | 151 kts | 4° |
| 2026-04-21 05:10 | -40.36687 | 174.61189 | 7952 ft | 151 kts | 4° |
| 2026-04-21 05:10 | -40.35639 | 174.61005 | 7950 ft | 152 kts | 3° |
| 2026-04-21 05:10 | -40.34589 | 174.60822 | 7953 ft | 152 kts | 3° |
| 2026-04-21 05:10 | -40.33552 | 174.60641 | 7954 ft | 152 kts | 4° |
| 2026-04-21 05:11 | -40.32507 | 174.60458 | 7950 ft | 151 kts | 4° |
| 2026-04-21 05:11 | -40.31463 | 174.60277 | 7946 ft | 151 kts | 5° |
| 2026-04-21 05:11 | -40.30420 | 174.60094 | 7949 ft | 151 kts | 2° |
| 2026-04-21 05:11 | -40.29381 | 174.59912 | 7948 ft | 151 kts | 6° |
| 2026-04-21 05:12 | -40.28343 | 174.59733 | 7948 ft | 150 kts | 2° |
| 2026-04-21 05:12 | -40.27306 | 174.59553 | 7945 ft | 150 kts | 2° |
| 2026-04-21 05:12 | -40.26272 | 174.59373 | 7947 ft | 149 kts | 1° |
| 2026-04-21 05:12 | -40.25242 | 174.59193 | 7950 ft | 149 kts | 3° |
| 2026-04-21 05:13 | -40.24221 | 174.59016 | 7949 ft | 150 kts | 3° |
| 2026-04-21 05:13 | -40.23191 | 174.58836 | 7945 ft | 149 kts | 3° |
| 2026-04-21 05:13 | -40.22145 | 174.58654 | 7944 ft | 149 kts | 3° |
| 2026-04-21 05:13 | -40.21116 | 174.58475 | 7945 ft | 149 kts | 3° |
| 2026-04-21 05:14 | -40.20099 | 174.58299 | 7947 ft | 149 kts | 3° |
| 2026-04-21 05:14 | -40.19071 | 174.58120 | 7941 ft | 149 kts | 2° |
| 2026-04-21 05:14 | -40.18046 | 174.57942 | 7944 ft | 149 kts | 2° |
| 2026-04-21 05:14 | -40.17018 | 174.57765 | 7946 ft | 149 kts | 2° |
| 2026-04-21 05:15 | -40.15994 | 174.57586 | 7947 ft | 148 kts | 2° |
| 2026-04-21 05:15 | -40.14970 | 174.57408 | 7941 ft | 149 kts | 2° |
| 2026-04-21 05:15 | -40.13945 | 174.57230 | 7941 ft | 148 kts | 2° |
| 2026-04-21 05:15 | -40.12922 | 174.57053 | 7941 ft | 148 kts | 2° |
| 2026-04-21 05:16 | -40.11900 | 174.56877 | 7940 ft | 148 kts | 2° |
| 2026-04-21 05:16 | -40.10894 | 174.56702 | 7941 ft | 148 kts | 2° |
| 2026-04-21 05:16 | -40.09875 | 174.56525 | 7941 ft | 147 kts | 0° |
| 2026-04-21 05:16 | -40.08859 | 174.56349 | 7941 ft | 147 kts | 2° |
| 2026-04-21 05:17 | -40.07843 | 174.56174 | 7943 ft | 148 kts | 2° |
| 2026-04-21 05:17 | -40.06825 | 174.55997 | 7942 ft | 148 kts | 2° |
| 2026-04-21 05:17 | -40.05807 | 174.55821 | 7939 ft | 147 kts | 0° |
| 2026-04-21 05:17 | -40.04789 | 174.55646 | 7943 ft | 148 kts | 1° |
| 2026-04-21 05:18 | -40.03772 | 174.55470 | 7941 ft | 147 kts | 2° |
| 2026-04-21 05:18 | -40.02759 | 174.55295 | 7941 ft | 147 kts | 1° |
| 2026-04-21 05:18 | -40.01752 | 174.55121 | 7941 ft | 146 kts | 1° |
| 2026-04-21 05:18 | -40.00745 | 174.54947 | 7935 ft | 146 kts | 360° |
| 2026-04-21 05:19 | -39.99738 | 174.54773 | 7938 ft | 146 kts | 2° |
| 2026-04-21 05:19 | -39.98731 | 174.54600 | 7936 ft | 145 kts | 1° |
| 2026-04-21 05:19 | -39.97733 | 174.54426 | 7975 ft | 142 kts | 360° |
| 2026-04-21 05:19 | -39.96753 | 174.54258 | 7989 ft | 143 kts | 1° |
| 2026-04-21 05:20 | -39.95765 | 174.54088 | 7989 ft | 143 kts | 0° |
| 2026-04-21 05:20 | -39.94774 | 174.53916 | 7987 ft | 144 kts | 1° |
| 2026-04-21 05:20 | -39.93781 | 174.53745 | 7987 ft | 144 kts | 0° |
| 2026-04-21 05:20 | -39.92789 | 174.53574 | 7990 ft | 144 kts | 1° |
| 2026-04-21 05:21 | -39.91796 | 174.53403 | 7992 ft | 144 kts | 0° |
| 2026-04-21 05:21 | -39.90804 | 174.53232 | 7988 ft | 144 kts | 360° |
| 2026-04-21 05:21 | -39.89818 | 174.53064 | 7950 ft | 147 kts | 359° |
| 2026-04-21 05:21 | -39.88796 | 174.52889 | 7876 ft | 149 kts | 0° |
| 2026-04-21 05:22 | -39.87762 | 174.52710 | 7805 ft | 151 kts | 360° |
| 2026-04-21 05:22 | -39.86719 | 174.52530 | 7728 ft | 152 kts | 360° |
| 2026-04-21 05:22 | -39.85672 | 174.52350 | 7656 ft | 152 kts | 359° |
| 2026-04-21 05:22 | -39.84623 | 174.52169 | 7580 ft | 152 kts | 359° |
| 2026-04-21 05:23 | -39.83572 | 174.51989 | 7513 ft | 152 kts | 359° |
| 2026-04-21 05:23 | -39.82521 | 174.51808 | 7423 ft | 152 kts | 359° |
| 2026-04-21 05:23 | -39.81467 | 174.51627 | 7357 ft | 153 kts | 359° |
| 2026-04-21 05:23 | -39.80416 | 174.51446 | 7278 ft | 152 kts | 358° |
| 2026-04-21 05:24 | -39.79365 | 174.51266 | 7211 ft | 152 kts | 359° |
| 2026-04-21 05:24 | -39.78313 | 174.51086 | 7135 ft | 153 kts | 359° |
| 2026-04-21 05:24 | -39.77259 | 174.50905 | 7054 ft | 153 kts | 359° |
| 2026-04-21 05:24 | -39.76205 | 174.50724 | 6982 ft | 153 kts | 359° |
| 2026-04-21 05:25 | -39.75150 | 174.50545 | 6861 ft | 156 kts | 359° |
| 2026-04-21 05:25 | -39.74070 | 174.50360 | 6738 ft | 157 kts | 358° |
| 2026-04-21 05:25 | -39.72974 | 174.50171 | 6559 ft | 161 kts | 358° |
| 2026-04-21 05:25 | -39.71850 | 174.49979 | 6361 ft | 163 kts | 358° |
| 2026-04-21 05:26 | -39.70721 | 174.49785 | 6161 ft | 163 kts | 358° |
| 2026-04-21 05:26 | -39.69592 | 174.49591 | 5954 ft | 164 kts | 358° |
| 2026-04-21 05:26 | -39.68450 | 174.49397 | 5750 ft | 166 kts | 358° |
| 2026-04-21 05:26 | -39.67301 | 174.49199 | 5546 ft | 166 kts | 358° |
| 2026-04-21 05:27 | -39.66152 | 174.49003 | 5335 ft | 166 kts | 358° |
| 2026-04-21 05:27 | -39.65006 | 174.48807 | 5137 ft | 167 kts | 357° |
| 2026-04-21 05:27 | -39.63855 | 174.48611 | 4932 ft | 167 kts | 358° |
| 2026-04-21 05:27 | -39.62703 | 174.48414 | 4741 ft | 167 kts | 357° |
| 2026-04-21 05:28 | -39.61565 | 174.48219 | 4547 ft | 167 kts | 358° |
| 2026-04-21 05:28 | -39.60450 | 174.48027 | 4517 ft | 159 kts | 357° |
| 2026-04-21 05:28 | -39.59361 | 174.47841 | 4490 ft | 156 kts | 358° |
| 2026-04-21 05:28 | -39.58290 | 174.47659 | 4457 ft | 155 kts | 357° |
| 2026-04-21 05:29 | -39.57229 | 174.47478 | 4428 ft | 153 kts | 357° |
| 2026-04-21 05:29 | -39.56177 | 174.47300 | 4398 ft | 152 kts | 358° |
| 2026-04-21 05:29 | -39.55111 | 174.47120 | 4370 ft | 155 kts | 357° |
| 2026-04-21 05:29 | -39.54045 | 174.46936 | 4347 ft | 154 kts | 357° |
| 2026-04-21 05:30 | -39.52975 | 174.46753 | 4312 ft | 154 kts | 357° |
| 2026-04-21 05:30 | -39.51908 | 174.46573 | 4294 ft | 156 kts | 357° |
| 2026-04-21 05:30 | -39.50844 | 174.46392 | 4264 ft | 156 kts | 357° |
| 2026-04-21 05:30 | -39.49770 | 174.46208 | 4235 ft | 155 kts | 358° |
| 2026-04-21 05:31 | -39.48709 | 174.46027 | 4207 ft | 153 kts | 357° |
| 2026-04-21 05:31 | -39.47649 | 174.45848 | 4184 ft | 154 kts | 357° |
| 2026-04-21 05:31 | -39.46586 | 174.45667 | 4151 ft | 153 kts | 357° |
| 2026-04-21 05:31 | -39.45527 | 174.45487 | 4125 ft | 154 kts | 357° |
| 2026-04-21 05:32 | -39.44462 | 174.45307 | 4102 ft | 154 kts | 356° |
| 2026-04-21 05:32 | -39.43401 | 174.45126 | 4067 ft | 156 kts | 356° |
| 2026-04-21 05:32 | -39.42322 | 174.44943 | 4046 ft | 157 kts | 357° |
| 2026-04-21 05:32 | -39.41241 | 174.44759 | 4020 ft | 156 kts | 356° |
| 2026-04-21 05:33 | -39.40187 | 174.44375 | 3980 ft | 160 kts | 336° |
| 2026-04-21 05:33 | -39.39206 | 174.43700 | 3956 ft | 159 kts | 332° |
| 2026-04-21 05:33 | -39.38229 | 174.43037 | 3929 ft | 158 kts | 333° |
| 2026-04-21 05:33 | -39.37246 | 174.42384 | 3900 ft | 159 kts | 334° |
| 2026-04-21 05:34 | -39.36258 | 174.41731 | 3873 ft | 160 kts | 333° |
| 2026-04-21 05:34 | -39.35266 | 174.41076 | 3847 ft | 160 kts | 333° |
| 2026-04-21 05:34 | -39.34274 | 174.40421 | 3821 ft | 160 kts | 333° |
| 2026-04-21 05:34 | -39.33279 | 174.39764 | 3795 ft | 161 kts | 333° |
| 2026-04-21 05:35 | -39.32277 | 174.39103 | 3767 ft | 162 kts | 333° |
| 2026-04-21 05:35 | -39.31274 | 174.38441 | 3742 ft | 162 kts | 333° |
| 2026-04-21 05:35 | -39.30272 | 174.37780 | 3720 ft | 162 kts | 332° |
| 2026-04-21 05:35 | -39.29259 | 174.37112 | 3695 ft | 164 kts | 333° |
| 2026-04-21 05:36 | -39.28247 | 174.36445 | 3664 ft | 162 kts | 333° |
| 2026-04-21 05:36 | -39.27240 | 174.35781 | 3640 ft | 163 kts | 333° |
| 2026-04-21 05:36 | -39.26220 | 174.35110 | 3613 ft | 165 kts | 333° |
| 2026-04-21 05:36 | -39.25199 | 174.34437 | 3581 ft | 163 kts | 333° |
| 2026-04-21 05:37 | -39.24190 | 174.33774 | 3562 ft | 163 kts | 333° |
| 2026-04-21 05:37 | -39.23182 | 174.33111 | 3529 ft | 166 kts | 333° |
| 2026-04-21 05:37 | -39.22154 | 174.32434 | 3507 ft | 165 kts | 333° |
| 2026-04-21 05:37 | -39.21135 | 174.31765 | 3478 ft | 164 kts | 333° |
| 2026-04-21 05:38 | -39.20119 | 174.31098 | 3449 ft | 164 kts | 332° |
| 2026-04-21 05:38 | -39.19103 | 174.30430 | 3423 ft | 163 kts | 333° |
| 2026-04-21 05:38 | -39.18091 | 174.29765 | 3397 ft | 164 kts | 333° |
| 2026-04-21 05:38 | -39.17217 | 174.28859 | 3345 ft | 160 kts | 300° |
| 2026-04-21 05:39 | -39.16866 | 174.27555 | 3307 ft | 152 kts | 272° |
| 2026-04-21 05:39 | -39.16643 | 174.26221 | 3280 ft | 153 kts | 274° |
| 2026-04-21 05:39 | -39.16397 | 174.24888 | 3256 ft | 153 kts | 275° |
| 2026-04-21 05:39 | -39.16144 | 174.23553 | 3226 ft | 153 kts | 275° |
| 2026-04-21 05:40 | -39.15891 | 174.22224 | 3208 ft | 153 kts | 275° |
| 2026-04-21 05:40 | -39.15636 | 174.20880 | 3125 ft | 155 kts | 274° |
| 2026-04-21 05:40 | -39.15377 | 174.19521 | 3054 ft | 157 kts | 274° |
| 2026-04-21 05:40 | -39.15116 | 174.18158 | 2981 ft | 157 kts | 274° |
| 2026-04-21 05:41 | -39.14855 | 174.16793 | 2901 ft | 157 kts | 274° |
| 2026-04-21 05:41 | -39.14598 | 174.15452 | 2821 ft | 155 kts | 274° |
| 2026-04-21 05:41 | -39.14342 | 174.14104 | 2742 ft | 155 kts | 274° |
| 2026-04-21 05:41 | -39.14084 | 174.12759 | 2666 ft | 155 kts | 274° |
| 2026-04-21 05:42 | -39.13827 | 174.11418 | 2641 ft | 153 kts | 274° |
| 2026-04-21 05:42 | -39.13571 | 174.10082 | 2608 ft | 152 kts | 274° |
| 2026-04-21 05:42 | -39.13318 | 174.08750 | 2591 ft | 154 kts | 274° |
| 2026-04-21 05:42 | -39.13059 | 174.07402 | 2568 ft | 156 kts | 274° |
| 2026-04-21 05:43 | -39.12798 | 174.06046 | 2542 ft | 156 kts | 274° |
| 2026-04-21 05:43 | -39.12333 | 174.04792 | 2462 ft | 159 kts | 306° |
| 2026-04-21 05:43 | -39.11413 | 174.04081 | 2460 ft | 151 kts | 340° |
| 2026-04-21 05:43 | -39.10471 | 174.03610 | 2456 ft | 140 kts | 339° |
| 2026-04-21 05:44 | -39.09561 | 174.03116 | 2457 ft | 147 kts | 337° |
| 2026-04-21 05:44 | -39.08611 | 174.02581 | 2467 ft | 151 kts | 336° |
| 2026-04-21 05:44 | -39.07627 | 174.02058 | 2459 ft | 150 kts | 346° |
| 2026-04-21 05:44 | -39.07445 | 174.02009 | 2457 ft | 148 kts | 354° |
| 2026-04-21 05:45 | -39.07195 | 174.01989 | 2447 ft | 144 kts | 7° |
| 2026-04-21 05:45 | -39.06343 | 174.02380 | 2451 ft | 121 kts | 49° |
| 2026-04-21 05:45 | -39.05844 | 174.03132 | 2444 ft | 101 kts | 80° |
| 2026-04-21 05:46 | -39.05571 | 174.03947 | 2449 ft | 101 kts | 82° |
| 2026-04-21 05:46 | -39.05275 | 174.04813 | 2347 ft | 109 kts | 82° |
| 2026-04-21 05:46 | -39.04966 | 174.05694 | 2198 ft | 106 kts | 81° |
| 2026-04-21 05:46 | -39.04669 | 174.06545 | 2037 ft | 103 kts | 82° |
| 2026-04-21 05:47 | -39.04379 | 174.07385 | 1881 ft | 102 kts | 83° |
| 2026-04-21 05:47 | -39.04188 | 174.07936 | 1770 ft | 102 kts | 83° |
| 2026-04-21 05:47 | -39.03899 | 174.08773 | 1624 ft | 102 kts | 82° |
| 2026-04-21 05:47 | -39.03513 | 174.09887 | 1438 ft | 103 kts | 82° |
| 2026-04-21 05:48 | -39.03225 | 174.10716 | 1293 ft | 98 kts | 81° |
| 2026-04-21 05:48 | -39.02951 | 174.11498 | 1134 ft | 95 kts | 81° |
| 2026-04-21 05:48 | -39.02682 | 174.12279 | 965 ft | 95 kts | 81° |
| 2026-04-21 05:48 | -39.02416 | 174.13047 | 800 ft | 93 kts | 79° |
| 2026-04-21 05:49 | -39.02176 | 174.13721 | 666 ft | 77 kts | 83° |
| 2026-04-21 05:49 | -39.02031 | 174.14142 | 590 ft | 75 kts | 81° |
| 2026-04-21 05:49 | -39.01836 | 174.14709 | 442 ft | 69 kts | 85° |
| 2026-04-21 05:49 | -39.01630 | 174.15311 | 407 ft | 77 kts | 84° |
| 2026-04-21 05:50 | -39.01413 | 174.15934 | 368 ft | 75 kts | 81° |
| 2026-04-21 05:50 | -39.01167 | 174.16494 | 163 ft | 64 kts | 96° |
| 2026-04-21 05:50 | -39.01002 | 174.17122 | 117 ft | 75 kts | 85° |
| 2026-04-21 05:50 | -39.00805 | 174.17635 | 90 ft | 49 kts | 88° |
| 2026-04-21 05:51 | -39.00792 | 174.17807 | 93 ft | 0 kts | 167° |
| 2026-04-21 05:51 | -39.00806 | 174.17810 | 91 ft | 5 kts | 162° |
| 2026-04-21 05:51 | -39.00849 | 174.17828 | 92 ft | 9 kts | 166° |
| 2026-04-21 05:51 | -39.00887 | 174.17849 | 92 ft | 1 kts | 139° |
| 2026-04-21 05:52 | -39.00893 | 174.17920 | 91 ft | 14 kts | 98° |
| 2026-04-21 05:52 | -39.00905 | 174.17966 | 94 ft | 2 kts | 196° |
| 2026-04-21 05:52 | -39.00911 | 174.17951 | 93 ft | 0 kts | 295° |